createdAt,value
2023-05-14T00:00:33.293Z,11.64
2023-05-14T00:03:00.870Z,11.44
2023-05-14T00:05:28.506Z,11.35
2023-05-14T00:07:56.007Z,11.46
2023-05-14T00:10:23.732Z,11.68
2023-05-14T00:12:52.623Z,11.65
2023-05-14T00:15:20.609Z,11.84
2023-05-14T00:17:49.452Z,12.21
2023-05-14T00:20:16.933Z,12.39
2023-05-14T00:22:44.473Z,12.67
2023-05-14T00:25:11.957Z,12.81
2023-05-14T00:27:39.465Z,13.01
2023-05-14T00:30:07.836Z,13.05
2023-05-14T00:32:35.465Z,12.67
2023-05-14T00:35:04.697Z,12.99
2023-05-14T00:37:32.208Z,13.40
2023-05-14T00:39:59.651Z,12.91
2023-05-14T00:42:27.836Z,12.65
2023-05-14T00:44:55.468Z,12.84
2023-05-14T00:47:23.264Z,12.59
2023-05-14T00:49:51.024Z,12.61
2023-05-14T00:52:20.210Z,12.65
2023-05-14T00:54:48.059Z,12.93
2023-05-14T00:57:15.711Z,13.05
2023-05-14T00:59:43.399Z,12.92
2023-05-14T01:02:11.950Z,12.77
2023-05-14T01:04:40.216Z,12.54
2023-05-14T01:07:17.766Z,12.82
2023-05-14T01:09:53.560Z,12.19
2023-05-14T01:12:30.748Z,12.06
2023-05-14T01:15:02.988Z,11.91
2023-05-14T01:17:34.073Z,11.92
2023-05-14T01:20:01.948Z,12.09
2023-05-14T01:22:30.769Z,12.21
2023-05-14T01:24:58.254Z,12.34
2023-05-14T01:27:30.740Z,12.05
2023-05-14T01:30:08.806Z,11.93
2023-05-14T01:32:36.967Z,11.98
2023-05-14T01:35:05.968Z,11.89
2023-05-14T01:37:37.430Z,12.17
2023-05-14T01:40:06.222Z,12.06
2023-05-14T01:42:34.162Z,11.78
2023-05-14T01:45:01.931Z,11.89
2023-05-14T01:47:29.448Z,11.99
2023-05-14T01:49:56.982Z,11.58
2023-05-14T01:52:24.701Z,11.53
2023-05-14T01:54:53.754Z,10.99
2023-05-14T01:57:21.426Z,11.03
2023-05-14T01:59:48.901Z,11.36
2023-05-14T02:02:16.352Z,11.79
2023-05-14T02:04:43.826Z,11.59
2023-05-14T02:07:11.274Z,11.75
2023-05-14T02:09:40.001Z,11.41
2023-05-14T02:12:11.039Z,11.48
2023-05-14T02:14:39.050Z,11.19
2023-05-14T02:17:07.022Z,10.71
2023-05-14T02:19:34.487Z,10.88
2023-05-14T02:22:01.981Z,10.80
2023-05-14T02:24:29.509Z,10.94
2023-05-14T02:26:56.981Z,11.36
2023-05-14T02:29:25.788Z,11.64
2023-05-14T02:31:53.352Z,11.52
2023-05-14T02:34:21.148Z,11.79
2023-05-14T02:36:48.763Z,11.69
2023-05-14T02:39:16.263Z,12.06
2023-05-14T02:41:43.767Z,11.57
2023-05-14T02:44:11.294Z,11.69
2023-05-14T02:46:40.160Z,12.23
2023-05-14T02:49:07.732Z,11.67
2023-05-14T02:51:35.241Z,11.64
2023-05-14T02:54:02.777Z,11.91
2023-05-14T02:56:30.217Z,11.43
2023-05-14T02:58:57.677Z,11.81
2023-05-14T03:01:25.793Z,11.69
2023-05-14T03:03:55.190Z,11.47
2023-05-14T03:06:22.643Z,11.05
2023-05-14T03:08:50.127Z,10.60
2023-05-14T03:11:17.583Z,10.60
2023-05-14T03:13:45.144Z,10.66
2023-05-14T03:16:12.629Z,10.29
2023-05-14T03:18:40.149Z,10.43
2023-05-14T03:21:09.298Z,10.60
2023-05-14T03:23:36.856Z,10.07
2023-05-14T03:26:04.919Z,10.08
2023-05-14T03:28:32.387Z,9.88
2023-05-14T03:30:59.949Z,9.90
2023-05-14T03:33:27.592Z,10.23
2023-05-14T03:35:55.071Z,10.15
2023-05-14T03:38:23.965Z,10.05
2023-05-14T03:40:51.486Z,10.03
2023-05-14T03:43:18.947Z,9.67
2023-05-14T03:45:46.633Z,9.60
2023-05-14T03:48:14.162Z,9.55
2023-05-14T03:50:41.766Z,9.63
2023-05-14T03:53:09.207Z,10.44
2023-05-14T03:55:38.278Z,10.55
2023-05-14T03:58:07.361Z,11.41
2023-05-14T04:00:34.842Z,11.92
2023-05-14T04:03:02.488Z,12.45
2023-05-14T04:05:30.024Z,13.09
2023-05-14T04:07:58.143Z,13.64
2023-05-14T04:10:26.044Z,13.90
2023-05-14T04:12:55.455Z,13.34
2023-05-14T04:15:23.220Z,13.05
2023-05-14T04:17:50.698Z,13.32
2023-05-14T04:20:18.381Z,13.02
2023-05-14T04:22:45.841Z,12.97
2023-05-14T04:25:13.305Z,12.96
2023-05-14T04:27:40.868Z,12.87
2023-05-14T04:30:11.328Z,12.84
2023-05-14T04:32:39.258Z,12.23
2023-05-14T04:35:07.673Z,12.49
2023-05-14T04:37:35.110Z,12.58
2023-05-14T04:40:02.825Z,12.04
2023-05-14T04:42:30.555Z,12.47
2023-05-14T04:44:58.634Z,12.62
2023-05-14T04:47:27.441Z,12.65
2023-05-14T04:49:54.981Z,12.99
2023-05-14T04:52:22.445Z,13.74
2023-05-14T04:54:49.982Z,14.12
2023-05-14T04:57:17.546Z,14.15
2023-05-14T04:59:45.056Z,14.32
2023-05-14T05:02:12.657Z,14.11
2023-05-14T05:04:41.457Z,14.76
2023-05-14T05:07:08.952Z,14.96
2023-05-14T05:09:36.413Z,14.99
2023-05-14T05:12:03.908Z,15.77
2023-05-14T05:14:31.370Z,15.97
2023-05-14T05:16:58.846Z,16.15
2023-05-14T05:19:35.843Z,16.28
2023-05-14T05:22:11.761Z,16.76
2023-05-14T05:24:39.314Z,16.15
2023-05-14T05:27:07.012Z,15.82
2023-05-14T05:29:35.597Z,16.14
2023-05-14T05:32:03.172Z,16.09
2023-05-14T05:34:31.258Z,16.28
2023-05-14T05:36:58.710Z,16.20
2023-05-14T05:39:27.537Z,16.57
2023-05-14T05:41:55.061Z,16.41
2023-05-14T05:44:22.515Z,16.34
2023-05-14T05:46:50.961Z,16.01
2023-05-14T05:49:18.585Z,16.42
2023-05-14T05:51:46.089Z,16.62
2023-05-14T05:54:13.530Z,17.07
2023-05-14T05:56:42.374Z,17.74
2023-05-14T05:59:09.934Z,18.65
2023-05-14T06:01:37.551Z,18.17
2023-05-14T06:04:06.319Z,18.44
2023-05-14T06:06:33.956Z,18.66
2023-05-14T06:09:02.052Z,18.70
2023-05-14T06:11:29.522Z,19.45
2023-05-14T06:13:58.315Z,19.58
2023-05-14T06:16:25.865Z,18.38
2023-05-14T06:18:54.397Z,19.13
2023-05-14T06:21:21.898Z,20.16
2023-05-14T06:23:49.338Z,19.22
2023-05-14T06:26:16.799Z,19.93
2023-05-14T06:28:44.245Z,19.79
2023-05-14T06:31:13.627Z,18.47
2023-05-14T06:33:41.076Z,17.78
2023-05-14T06:36:09.238Z,16.40
2023-05-14T06:38:36.685Z,17.23
2023-05-14T06:41:04.648Z,17.77
2023-05-14T06:43:32.260Z,17.95
2023-05-14T06:46:00.175Z,17.71
2023-05-14T06:48:29.456Z,16.99
2023-05-14T06:50:57.165Z,17.12
2023-05-14T06:53:24.628Z,17.84
2023-05-14T06:55:52.093Z,16.87
2023-05-14T06:58:19.568Z,16.32
2023-05-14T07:00:47.046Z,16.14
2023-05-14T07:03:14.547Z,16.55
2023-05-14T07:05:44.874Z,16.79
2023-05-14T07:08:12.346Z,15.95
2023-05-14T07:10:40.002Z,15.97
2023-05-14T07:13:07.473Z,16.72
2023-05-14T07:15:34.917Z,16.89
2023-05-14T07:18:02.434Z,17.16
2023-05-14T07:20:29.895Z,16.79
2023-05-14T07:22:58.670Z,16.31
2023-05-14T07:25:26.183Z,15.55
2023-05-14T07:27:53.621Z,15.43
2023-05-14T07:30:21.577Z,15.90
2023-05-14T07:32:49.215Z,17.04
2023-05-14T07:35:16.861Z,17.80
2023-05-14T07:37:44.611Z,18.87
2023-05-14T07:40:13.716Z,17.89
2023-05-14T07:42:41.227Z,16.22
2023-05-14T07:45:10.524Z,16.11
2023-05-14T07:47:38.023Z,15.99
2023-05-14T07:50:06.345Z,15.56
2023-05-14T07:52:33.874Z,15.98
2023-05-14T07:55:01.741Z,17.42
2023-05-14T07:57:30.596Z,18.63
2023-05-14T07:59:58.091Z,21.32
2023-05-14T08:02:25.662Z,21.92
2023-05-14T08:04:53.499Z,20.27
2023-05-14T08:07:21.575Z,18.03
2023-05-14T08:09:49.013Z,18.71
2023-05-14T08:12:16.575Z,19.05
2023-05-14T08:14:46.007Z,19.18
2023-05-14T08:17:13.746Z,19.30
2023-05-14T08:19:41.356Z,19.36
2023-05-14T08:22:08.794Z,18.90
2023-05-14T08:24:36.413Z,18.53
2023-05-14T08:27:03.943Z,18.12
2023-05-14T08:29:31.425Z,19.77
2023-05-14T08:32:05.795Z,20.61
2023-05-14T08:34:39.495Z,20.87
2023-05-14T08:37:06.979Z,22.15
2023-05-14T08:39:34.473Z,23.10
2023-05-14T08:42:03.318Z,20.08
2023-05-14T08:44:37.106Z,20.03
2023-05-14T08:47:07.014Z,19.78
2023-05-14T08:49:41.481Z,19.88
2023-05-14T08:52:09.863Z,20.49
2023-05-14T08:54:37.630Z,21.19
2023-05-14T08:57:05.782Z,21.24
2023-05-14T08:59:33.381Z,21.47
2023-05-14T09:02:04.963Z,21.16
2023-05-14T09:04:34.660Z,21.76
2023-05-14T09:07:04.101Z,21.08
2023-05-14T09:09:32.072Z,19.58
2023-05-14T09:11:59.585Z,18.95
2023-05-14T09:14:27.220Z,18.18
2023-05-14T09:16:55.735Z,18.87
2023-05-14T09:19:23.451Z,20.23
2023-05-14T09:21:52.435Z,21.30
2023-05-14T09:24:21.269Z,20.81
2023-05-14T09:26:51.669Z,20.69
2023-05-14T09:29:19.156Z,20.82
2023-05-14T09:31:47.162Z,21.97
2023-05-14T09:34:25.018Z,21.55
2023-05-14T09:36:57.969Z,20.87
2023-05-14T09:39:25.488Z,20.87
2023-05-14T09:41:53.861Z,19.88
2023-05-14T09:44:21.861Z,20.80
2023-05-14T09:46:50.172Z,21.20
2023-05-14T09:49:17.958Z,22.06
2023-05-14T09:51:45.571Z,21.67
2023-05-14T09:54:14.348Z,21.02
2023-05-14T09:56:42.014Z,21.48
2023-05-14T09:59:09.481Z,20.93
2023-05-14T10:01:38.576Z,20.98
2023-05-14T10:04:09.247Z,20.75
2023-05-14T10:06:39.256Z,20.39
2023-05-14T10:09:13.073Z,20.09
2023-05-14T10:11:44.732Z,18.86
2023-05-14T10:14:18.203Z,19.58
2023-05-14T10:16:49.894Z,20.64
2023-05-14T10:19:18.967Z,20.90
2023-05-14T10:21:50.790Z,21.42
2023-05-14T10:24:19.833Z,20.11
2023-05-14T10:26:49.465Z,21.39
2023-05-14T10:29:17.133Z,22.51
2023-05-14T10:31:49.110Z,22.34
2023-05-14T10:34:33.492Z,22.56
2023-05-14T10:37:02.246Z,23.13
2023-05-14T10:39:48.441Z,22.97
2023-05-14T10:42:19.683Z,22.85
2023-05-14T10:44:53.345Z,22.96
2023-05-14T10:47:21.274Z,24.30
2023-05-14T10:49:49.984Z,22.90
2023-05-14T10:52:22.058Z,23.31
2023-05-14T10:54:54.089Z,23.07
2023-05-14T10:57:24.118Z,24.23
2023-05-14T10:59:55.011Z,23.56
2023-05-14T11:02:24.868Z,23.45
2023-05-14T11:05:03.576Z,22.40
2023-05-14T11:07:33.225Z,22.77
2023-05-14T11:10:03.414Z,23.63
2023-05-14T11:12:33.220Z,25.18
2023-05-14T11:15:03.786Z,25.82
2023-05-14T11:17:32.686Z,21.48
2023-05-14T11:20:00.971Z,20.59
2023-05-14T11:22:28.623Z,21.82
2023-05-14T11:24:56.103Z,21.90
2023-05-14T11:27:24.854Z,22.21
2023-05-14T11:29:55.800Z,23.60
2023-05-14T11:32:23.485Z,22.87
2023-05-14T11:34:51.219Z,23.59
2023-05-14T11:37:18.696Z,23.08
2023-05-14T11:39:50.934Z,23.70
2023-05-14T11:42:19.658Z,24.19
2023-05-14T11:44:48.940Z,23.67
2023-05-14T11:47:18.630Z,23.56
2023-05-14T11:49:46.581Z,24.24
2023-05-14T11:52:15.738Z,26.39
2023-05-14T11:54:44.327Z,26.90
2023-05-14T11:57:13.683Z,26.38
2023-05-14T11:59:41.682Z,24.10
2023-05-14T12:02:11.604Z,24.59
2023-05-14T12:04:41.773Z,25.31
2023-05-14T12:07:11.471Z,23.26
2023-05-14T12:09:43.564Z,25.13
2023-05-14T12:12:13.412Z,25.17
2023-05-14T12:14:42.646Z,23.44
2023-05-14T12:17:15.041Z,22.00
2023-05-14T12:19:45.660Z,20.98
2023-05-14T12:22:16.351Z,22.39
2023-05-14T12:24:44.551Z,22.92
2023-05-14T12:27:12.818Z,22.22
2023-05-14T12:29:40.338Z,22.54
2023-05-14T12:32:09.624Z,23.21
2023-05-14T12:34:37.821Z,22.89
2023-05-14T12:37:07.029Z,21.56
2023-05-14T12:39:35.676Z,20.65
2023-05-14T12:42:03.312Z,20.33
2023-05-14T12:44:31.236Z,20.82
2023-05-14T12:46:58.783Z,21.13
2023-05-14T12:49:26.282Z,21.23
2023-05-14T12:52:07.682Z,20.41
2023-05-14T12:54:43.404Z,19.98
2023-05-14T12:57:11.027Z,19.50
2023-05-14T12:59:38.460Z,19.25
2023-05-14T13:02:06.246Z,19.30
2023-05-14T13:04:33.771Z,19.45
2023-05-14T13:07:01.344Z,19.39
2023-05-14T13:09:28.803Z,19.71
2023-05-14T13:11:57.590Z,19.83
2023-05-14T13:14:25.192Z,19.48
2023-05-14T13:16:52.682Z,19.41
2023-05-14T13:19:20.178Z,19.08
2023-05-14T13:21:47.635Z,19.06
2023-05-14T13:24:15.117Z,18.92
2023-05-14T13:26:44.393Z,19.51
2023-05-14T13:29:13.332Z,19.34
2023-05-14T13:31:40.788Z,19.97
2023-05-14T13:34:08.794Z,19.58
2023-05-14T13:36:39.479Z,19.47
2023-05-14T13:39:07.045Z,19.11
2023-05-14T13:41:35.691Z,19.26
2023-05-14T13:44:03.159Z,19.34
2023-05-14T13:46:32.043Z,18.55
2023-05-14T13:48:59.565Z,18.45
2023-05-14T13:51:27.103Z,18.17
2023-05-14T13:56:26.940Z,18.95
2023-05-14T13:58:54.428Z,18.58
2023-05-14T14:01:23.267Z,18.62
2023-05-14T14:03:52.183Z,18.33
2023-05-14T14:06:19.650Z,18.14
2023-05-14T14:08:47.101Z,18.33
2023-05-14T14:11:14.684Z,17.88
2023-05-14T14:13:43.281Z,18.63
2023-05-14T14:16:11.920Z,19.04
2023-05-14T14:18:39.457Z,19.00
2023-05-14T14:21:08.327Z,19.52
2023-05-14T14:23:35.863Z,19.36
2023-05-14T14:26:03.758Z,19.27
2023-05-14T14:28:31.680Z,18.98
2023-05-14T14:30:59.515Z,18.60
2023-05-14T14:33:27.261Z,17.61
2023-05-14T14:35:54.787Z,17.19
2023-05-14T14:38:23.558Z,16.86
2023-05-14T14:40:51.317Z,16.94
2023-05-14T14:43:18.800Z,16.76
2023-05-14T14:45:48.311Z,16.23
2023-05-14T14:48:31.351Z,15.91
2023-05-14T14:50:59.165Z,15.45
2023-05-14T14:53:28.057Z,15.27
2023-05-14T14:55:55.677Z,15.23
2023-05-14T14:58:23.685Z,14.77
2023-05-14T15:00:53.691Z,14.72
2023-05-14T15:03:21.819Z,14.96
2023-05-14T15:05:49.661Z,15.31
2023-05-14T15:08:17.099Z,15.41
2023-05-14T15:10:46.666Z,15.40
2023-05-14T15:13:14.257Z,15.20
2023-05-14T15:15:41.792Z,15.08
2023-05-14T15:18:09.302Z,14.84
2023-05-14T15:20:36.850Z,14.89
2023-05-14T15:23:04.355Z,14.58
2023-05-14T15:25:31.828Z,14.22
2023-05-14T15:28:00.793Z,14.19
2023-05-14T15:30:28.215Z,14.42
2023-05-14T15:32:56.529Z,13.96
2023-05-14T15:35:24.472Z,13.94
2023-05-14T15:37:52.197Z,13.86
2023-05-14T15:40:20.161Z,13.94
2023-05-14T15:42:47.749Z,13.87
2023-05-14T15:45:16.562Z,14.19
2023-05-14T15:47:45.162Z,14.16
2023-05-14T15:50:13.097Z,14.49
2023-05-14T15:52:41.428Z,14.70
2023-05-14T15:55:09.922Z,14.86
2023-05-14T15:57:37.754Z,15.19
2023-05-14T16:00:10.372Z,15.30
2023-05-14T16:02:40.098Z,15.50
2023-05-14T16:05:08.818Z,15.45
2023-05-14T16:07:37.023Z,15.57
2023-05-14T16:10:05.037Z,15.76
2023-05-14T16:12:32.594Z,16.18
2023-05-14T16:15:00.220Z,16.27
2023-05-14T16:17:28.057Z,15.94
2023-05-14T16:19:57.314Z,15.98
2023-05-14T16:22:24.741Z,16.28
2023-05-14T16:24:52.175Z,16.58
2023-05-14T16:27:19.821Z,16.70
2023-05-14T16:29:47.324Z,16.83
2023-05-14T16:32:14.862Z,17.29
2023-05-14T16:34:47.341Z,17.61
2023-05-14T16:37:16.269Z,17.62
2023-05-14T16:39:43.914Z,17.78
2023-05-14T16:42:11.386Z,17.62
2023-05-14T16:44:38.860Z,17.64
2023-05-14T16:47:06.529Z,17.98
2023-05-14T16:49:34.026Z,18.09
2023-05-14T16:52:01.512Z,18.52
2023-05-14T16:54:30.272Z,19.14
2023-05-14T16:56:58.769Z,19.80
2023-05-14T16:59:26.340Z,19.68
2023-05-14T17:01:53.832Z,20.17
2023-05-14T17:04:21.396Z,19.92
2023-05-14T17:06:49.254Z,19.07
2023-05-14T17:09:17.645Z,18.60
2023-05-14T17:11:46.440Z,18.67
2023-05-14T17:14:13.934Z,18.52
2023-05-14T17:16:42.294Z,18.34
2023-05-14T17:19:09.877Z,18.13
2023-05-14T17:21:37.391Z,18.04
2023-05-14T17:24:05.040Z,17.99
2023-05-14T17:26:32.523Z,17.86
2023-05-14T17:29:01.691Z,17.82
2023-05-14T17:31:29.184Z,17.86
2023-05-14T17:33:56.655Z,17.79
2023-05-14T17:36:24.387Z,17.41
2023-05-14T17:38:52.401Z,16.99
2023-05-14T17:41:19.903Z,16.61
2023-05-14T17:43:47.374Z,15.95
2023-05-14T17:46:16.190Z,15.96
2023-05-14T17:48:43.675Z,15.63
2023-05-14T17:51:11.140Z,15.74
2023-05-14T17:53:38.616Z,16.12
2023-05-14T17:56:06.385Z,15.97
2023-05-14T17:58:34.130Z,15.80
2023-05-14T18:01:01.719Z,15.41
2023-05-14T18:03:30.729Z,14.82
2023-05-14T18:05:59.688Z,15.27
2023-05-14T18:08:27.164Z,14.73
2023-05-14T18:10:54.636Z,14.18
2023-05-14T18:13:22.105Z,14.02
2023-05-14T18:15:51.522Z,13.75
2023-05-14T18:18:18.986Z,13.43
2023-05-14T18:20:48.213Z,13.27
2023-05-14T18:23:15.673Z,13.57
2023-05-14T18:25:43.382Z,13.61
2023-05-14T18:28:11.257Z,13.34
2023-05-14T18:30:38.754Z,13.62
2023-05-14T18:33:06.279Z,14.14
2023-05-14T18:35:35.098Z,14.11
2023-05-14T18:38:03.989Z,13.95
2023-05-14T18:40:31.443Z,13.82
2023-05-14T18:42:58.870Z,13.36
2023-05-14T18:45:26.603Z,13.09
2023-05-14T18:47:54.271Z,12.61
2023-05-14T18:50:21.816Z,12.39
2023-05-14T18:52:49.343Z,13.06
2023-05-14T18:55:18.265Z,13.82
2023-05-14T18:57:45.917Z,13.68
2023-05-14T19:00:14.581Z,13.93
2023-05-14T19:02:42.412Z,13.81
2023-05-14T19:05:10.439Z,13.95
2023-05-14T19:07:38.476Z,13.84
2023-05-14T19:10:07.147Z,13.81
2023-05-14T19:12:35.941Z,13.77
2023-05-14T19:15:04.425Z,13.61
2023-05-14T19:17:32.786Z,13.50
2023-05-14T19:20:00.433Z,13.46
2023-05-14T19:22:27.923Z,13.39
2023-05-14T19:24:55.443Z,13.31
2023-05-14T19:27:24.126Z,13.14
2023-05-14T19:29:53.103Z,13.28
2023-05-14T19:32:20.557Z,13.42
2023-05-14T19:34:49.493Z,13.44
2023-05-14T19:37:18.444Z,13.34
2023-05-14T19:39:45.910Z,13.31
2023-05-14T19:42:13.391Z,13.18
2023-05-14T19:44:40.886Z,12.96
2023-05-14T19:47:09.877Z,13.09
2023-05-14T19:49:37.436Z,13.26
2023-05-14T19:52:05.306Z,13.29
2023-05-14T19:54:32.820Z,13.29
2023-05-14T19:57:00.349Z,13.31
2023-05-14T19:59:29.394Z,13.36
2023-05-14T20:01:56.932Z,13.46
2023-05-14T20:04:26.066Z,13.51
2023-05-14T20:06:53.610Z,13.50
2023-05-14T20:09:21.115Z,13.45
2023-05-14T20:11:48.708Z,13.41
2023-05-14T20:14:16.224Z,13.37
2023-05-14T20:16:43.796Z,13.29
2023-05-14T20:19:11.934Z,13.44
2023-05-14T20:21:41.324Z,12.91
2023-05-14T20:24:08.957Z,13.01
2023-05-14T20:26:36.484Z,12.92
2023-05-14T20:29:03.969Z,12.07
2023-05-14T20:31:31.482Z,12.88
2023-05-14T20:33:58.956Z,12.77
2023-05-14T20:36:26.424Z,12.56
2023-05-14T20:38:55.864Z,12.56
2023-05-14T20:41:23.331Z,12.65
2023-05-14T20:43:50.862Z,13.16
2023-05-14T20:46:18.382Z,13.35
2023-05-14T20:48:47.784Z,13.51
2023-05-14T20:51:15.282Z,13.66
2023-05-14T20:53:42.720Z,13.43
2023-05-14T20:56:11.576Z,13.57
2023-05-14T20:58:39.030Z,13.76
2023-05-14T21:01:07.940Z,13.82
2023-05-14T21:03:35.561Z,13.83
2023-05-14T21:06:03.560Z,13.72
2023-05-14T21:08:32.760Z,13.69
2023-05-14T21:11:00.548Z,13.69
2023-05-14T21:13:29.354Z,13.70
2023-05-14T21:15:56.959Z,13.42
2023-05-14T21:18:26.599Z,12.04
2023-05-14T21:20:54.096Z,11.81
2023-05-14T21:23:21.590Z,12.20
2023-05-14T21:25:49.093Z,12.57
2023-05-14T21:28:16.604Z,12.51
2023-05-14T21:30:45.775Z,12.43
2023-05-14T21:33:13.298Z,12.79
2023-05-14T21:35:40.787Z,12.91
2023-05-14T21:38:08.803Z,12.63
2023-05-14T21:40:36.644Z,12.29
2023-05-14T21:43:04.269Z,11.92
2023-05-14T21:45:31.744Z,12.26
2023-05-14T21:48:00.702Z,11.70
2023-05-14T21:50:28.332Z,11.58
2023-05-14T21:52:55.814Z,11.95
2023-05-14T21:55:24.690Z,12.06
2023-05-14T21:57:52.480Z,11.67
2023-05-14T22:00:23.386Z,11.34
2023-05-14T22:02:51.571Z,11.30
2023-05-14T22:05:20.527Z,10.89
2023-05-14T22:07:48.056Z,11.04
2023-05-14T22:10:16.574Z,10.84
2023-05-14T22:12:45.266Z,11.01
2023-05-14T22:15:13.740Z,10.92
2023-05-14T22:17:41.632Z,11.31
2023-05-14T22:20:10.384Z,11.61
2023-05-14T22:22:39.670Z,11.89
2023-05-14T22:25:07.754Z,11.71
2023-05-14T22:27:35.315Z,11.52
2023-05-14T22:30:02.822Z,11.41
2023-05-14T22:32:30.327Z,11.53
2023-05-14T22:34:57.838Z,11.54
2023-05-14T22:37:25.441Z,11.60
2023-05-14T22:39:54.251Z,11.43
2023-05-14T22:42:21.724Z,11.46
2023-05-14T22:44:49.181Z,11.47
2023-05-14T22:47:16.959Z,11.76
2023-05-14T22:49:44.433Z,11.82
2023-05-14T22:52:11.898Z,11.98
2023-05-14T22:54:39.379Z,12.10
2023-05-14T22:57:08.434Z,11.55
2023-05-14T22:59:36.047Z,11.96
2023-05-14T23:02:03.575Z,11.44
2023-05-14T23:04:31.101Z,10.50
2023-05-14T23:06:59.042Z,9.99
2023-05-14T23:09:26.532Z,10.16
2023-05-14T23:11:54.059Z,10.15
2023-05-14T23:14:22.895Z,10.34
2023-05-14T23:16:50.450Z,10.47
2023-05-14T23:19:18.134Z,10.65
2023-05-14T23:21:45.901Z,11.19
2023-05-14T23:24:13.394Z,11.21
2023-05-14T23:26:40.891Z,11.72
2023-05-14T23:29:08.404Z,11.74
2023-05-14T23:31:38.625Z,12.12
2023-05-14T23:34:06.239Z,12.18
2023-05-14T23:36:33.858Z,12.38
2023-05-14T23:39:01.426Z,12.46
2023-05-14T23:41:28.882Z,12.48
2023-05-14T23:43:56.466Z,12.20
2023-05-14T23:46:24.444Z,12.48
2023-05-14T23:48:56.942Z,12.62
2023-05-14T23:51:24.668Z,12.70
2023-05-14T23:53:56.242Z,12.81
2023-05-14T23:56:23.749Z,12.36
2023-05-14T23:58:51.425Z,12.03
